sensor_id;sensor_type;location;lat;lon;timestamp;temperature;humidity
23231;DHT22;11784;49.818;8.632;2023-03-15T00:01:58;9.20;81.00
23231;DHT22;11784;49.818;8.632;2023-03-15T00:04:23;9.20;80.90
23231;DHT22;11784;49.818;8.632;2023-03-15T00:06:50;9.10;81.00
23231;DHT22;11784;49.818;8.632;2023-03-15T00:09:16;9.10;80.10
23231;DHT22;11784;49.818;8.632;2023-03-15T00:11:41;9.00;78.90
23231;DHT22;11784;49.818;8.632;2023-03-15T00:14:07;8.90;78.80
23231;DHT22;11784;49.818;8.632;2023-03-15T00:16:33;8.90;79.70
23231;DHT22;11784;49.818;8.632;2023-03-15T00:18:58;8.90;80.30
23231;DHT22;11784;49.818;8.632;2023-03-15T00:21:24;8.90;79.50
23231;DHT22;11784;49.818;8.632;2023-03-15T00:23:50;8.70;79.50
23231;DHT22;11784;49.818;8.632;2023-03-15T00:26:16;8.70;79.70
23231;DHT22;11784;49.818;8.632;2023-03-15T00:28:42;8.70;79.60
23231;DHT22;11784;49.818;8.632;2023-03-15T00:33:37;8.60;80.20
23231;DHT22;11784;49.818;8.632;2023-03-15T00:36:07;8.60;80.30
23231;DHT22;11784;49.818;8.632;2023-03-15T00:38:34;8.50;80.40
23231;DHT22;11784;49.818;8.632;2023-03-15T00:41:12;8.50;81.10
23231;DHT22;11784;49.818;8.632;2023-03-15T00:43:38;8.40;79.50
23231;DHT22;11784;49.818;8.632;2023-03-15T00:46:04;8.40;80.40
23231;DHT22;11784;49.818;8.632;2023-03-15T00:48:30;8.30;79.90
23231;DHT22;11784;49.818;8.632;2023-03-15T00:51:09;8.30;80.10
23231;DHT22;11784;49.818;8.632;2023-03-15T00:53:36;8.30;80.10
23231;DHT22;11784;49.818;8.632;2023-03-15T00:56:07;8.30;80.90
23231;DHT22;11784;49.818;8.632;2023-03-15T00:58:34;8.20;81.70
23231;DHT22;11784;49.818;8.632;2023-03-15T01:00:59;8.20;81.10
23231;DHT22;11784;49.818;8.632;2023-03-15T01:03:29;8.20;81.70
23231;DHT22;11784;49.818;8.632;2023-03-15T01:05:54;8.10;81.60
23231;DHT22;11784;49.818;8.632;2023-03-15T01:08:20;8.10;82.00
23231;DHT22;11784;49.818;8.632;2023-03-15T01:10:45;8.10;81.90
23231;DHT22;11784;49.818;8.632;2023-03-15T01:13:11;8.00;81.80
23231;DHT22;11784;49.818;8.632;2023-03-15T01:15:36;8.00;81.80
23231;DHT22;11784;49.818;8.632;2023-03-15T01:18:02;8.00;81.60
23231;DHT22;11784;49.818;8.632;2023-03-15T01:20:27;7.90;81.50
23231;DHT22;11784;49.818;8.632;2023-03-15T01:22:53;7.80;81.70
23231;DHT22;11784;49.818;8.632;2023-03-15T01:25:18;7.80;81.60
23231;DHT22;11784;49.818;8.632;2023-03-15T01:27:44;7.80;81.50
23231;DHT22;11784;49.818;8.632;2023-03-15T01:30:10;7.80;81.50
23231;DHT22;11784;49.818;8.632;2023-03-15T01:32:35;7.70;81.60
23231;DHT22;11784;49.818;8.632;2023-03-15T01:35:01;7.70;81.70
23231;DHT22;11784;49.818;8.632;2023-03-15T01:37:26;7.70;81.60
23231;DHT22;11784;49.818;8.632;2023-03-15T01:39:52;7.60;81.10
23231;DHT22;11784;49.818;8.632;2023-03-15T01:42:18;7.60;82.20
23231;DHT22;11784;49.818;8.632;2023-03-15T01:44:50;7.60;83.10
23231;DHT22;11784;49.818;8.632;2023-03-15T01:47:16;7.50;82.20
23231;DHT22;11784;49.818;8.632;2023-03-15T01:49:42;7.50;82.40
23231;DHT22;11784;49.818;8.632;2023-03-15T01:52:14;7.50;82.20
23231;DHT22;11784;49.818;8.632;2023-03-15T01:54:50;7.40;82.10
23231;DHT22;11784;49.818;8.632;2023-03-15T01:57:28;7.40;82.40
23231;DHT22;11784;49.818;8.632;2023-03-15T01:59:59;7.40;81.80
23231;DHT22;11784;49.818;8.632;2023-03-15T02:02:27;7.40;82.40
23231;DHT22;11784;49.818;8.632;2023-03-15T02:05:04;7.30;82.30
23231;DHT22;11784;49.818;8.632;2023-03-15T02:07:33;7.30;82.60
23231;DHT22;11784;49.818;8.632;2023-03-15T02:10:03;7.30;82.70
23231;DHT22;11784;49.818;8.632;2023-03-15T02:12:31;7.30;83.30
23231;DHT22;11784;49.818;8.632;2023-03-15T02:15:00;7.30;82.90
23231;DHT22;11784;49.818;8.632;2023-03-15T02:17:43;7.20;82.60
23231;DHT22;11784;49.818;8.632;2023-03-15T02:20:24;7.20;83.50
23231;DHT22;11784;49.818;8.632;2023-03-15T02:22:57;7.20;83.50
23231;DHT22;11784;49.818;8.632;2023-03-15T02:25:46;7.20;83.20
23231;DHT22;11784;49.818;8.632;2023-03-15T02:28:15;7.20;82.70
23231;DHT22;11784;49.818;8.632;2023-03-15T02:30:42;7.20;82.70
23231;DHT22;11784;49.818;8.632;2023-03-15T02:33:28;7.10;82.40
23231;DHT22;11784;49.818;8.632;2023-03-15T02:35:55;7.10;82.70
23231;DHT22;11784;49.818;8.632;2023-03-15T02:38:30;7.10;83.80
23231;DHT22;11784;49.818;8.632;2023-03-15T02:40:56;7.10;83.30
23231;DHT22;11784;49.818;8.632;2023-03-15T02:43:24;7.10;83.90
23231;DHT22;11784;49.818;8.632;2023-03-15T02:45:50;7.10;83.60
23231;DHT22;11784;49.818;8.632;2023-03-15T02:48:17;7.10;83.30
23231;DHT22;11784;49.818;8.632;2023-03-15T02:50:43;7.10;83.20
23231;DHT22;11784;49.818;8.632;2023-03-15T02:53:08;7.10;83.00
23231;DHT22;11784;49.818;8.632;2023-03-15T02:55:34;7.00;82.90
23231;DHT22;11784;49.818;8.632;2023-03-15T02:58:00;7.00;83.20
23231;DHT22;11784;49.818;8.632;2023-03-15T03:00:27;7.00;83.50
23231;DHT22;11784;49.818;8.632;2023-03-15T03:02:53;7.00;83.70
23231;DHT22;11784;49.818;8.632;2023-03-15T03:05:18;6.90;83.70
23231;DHT22;11784;49.818;8.632;2023-03-15T03:07:44;7.00;83.20
23231;DHT22;11784;49.818;8.632;2023-03-15T03:10:14;6.90;83.00
23231;DHT22;11784;49.818;8.632;2023-03-15T03:12:40;6.90;83.00
23231;DHT22;11784;49.818;8.632;2023-03-15T03:15:06;6.90;83.00
23231;DHT22;11784;49.818;8.632;2023-03-15T03:17:32;6.90;83.50
23231;DHT22;11784;49.818;8.632;2023-03-15T03:20:03;6.90;83.70
23231;DHT22;11784;49.818;8.632;2023-03-15T03:22:30;6.90;83.20
23231;DHT22;11784;49.818;8.632;2023-03-15T03:24:55;6.80;83.00
23231;DHT22;11784;49.818;8.632;2023-03-15T03:27:21;6.80;82.80
23231;DHT22;11784;49.818;8.632;2023-03-15T03:29:46;6.80;83.50
23231;DHT22;11784;49.818;8.632;2023-03-15T03:32:12;6.80;83.70
23231;DHT22;11784;49.818;8.632;2023-03-15T03:34:37;6.80;83.60
23231;DHT22;11784;49.818;8.632;2023-03-15T03:37:03;6.80;83.60
23231;DHT22;11784;49.818;8.632;2023-03-15T03:39:28;6.80;83.60
23231;DHT22;11784;49.818;8.632;2023-03-15T03:41:54;6.70;84.20
23231;DHT22;11784;49.818;8.632;2023-03-15T03:44:19;6.70;83.50
23231;DHT22;11784;49.818;8.632;2023-03-15T03:46:47;6.80;83.40
23231;DHT22;11784;49.818;8.632;2023-03-15T03:49:12;6.80;83.20
23231;DHT22;11784;49.818;8.632;2023-03-15T03:51:39;6.70;82.90
23231;DHT22;11784;49.818;8.632;2023-03-15T03:54:05;6.70;82.70
23231;DHT22;11784;49.818;8.632;2023-03-15T03:56:31;6.70;83.10
23231;DHT22;11784;49.818;8.632;2023-03-15T03:58:56;6.70;83.20
23231;DHT22;11784;49.818;8.632;2023-03-15T04:01:22;6.60;83.50
23231;DHT22;11784;49.818;8.632;2023-03-15T04:03:48;6.60;83.50
23231;DHT22;11784;49.818;8.632;2023-03-15T04:06:14;6.50;84.30
23231;DHT22;11784;49.818;8.632;2023-03-15T04:08:40;6.50;84.30
23231;DHT22;11784;49.818;8.632;2023-03-15T04:11:05;6.50;84.10
23231;DHT22;11784;49.818;8.632;2023-03-15T04:13:31;6.50;84.30
23231;DHT22;11784;49.818;8.632;2023-03-15T04:15:57;6.50;84.10
23231;DHT22;11784;49.818;8.632;2023-03-15T04:18:23;6.50;84.60
23231;DHT22;11784;49.818;8.632;2023-03-15T04:20:48;6.50;84.40
23231;DHT22;11784;49.818;8.632;2023-03-15T04:23:17;6.50;84.40
23231;DHT22;11784;49.818;8.632;2023-03-15T04:25:49;6.50;84.50
23231;DHT22;11784;49.818;8.632;2023-03-15T04:28:16;6.50;84.20
23231;DHT22;11784;49.818;8.632;2023-03-15T04:30:41;6.50;83.90
23231;DHT22;11784;49.818;8.632;2023-03-15T04:33:08;6.50;83.70
23231;DHT22;11784;49.818;8.632;2023-03-15T04:35:35;6.60;83.90
23231;DHT22;11784;49.818;8.632;2023-03-15T04:38:02;6.50;83.60
23231;DHT22;11784;49.818;8.632;2023-03-15T04:40:29;6.50;83.80
23231;DHT22;11784;49.818;8.632;2023-03-15T04:42:55;6.50;83.70
23231;DHT22;11784;49.818;8.632;2023-03-15T04:45:22;6.50;84.10
23231;DHT22;11784;49.818;8.632;2023-03-15T04:47:48;6.50;83.90
23231;DHT22;11784;49.818;8.632;2023-03-15T04:50:14;6.50;84.20
23231;DHT22;11784;49.818;8.632;2023-03-15T04:52:39;6.50;83.90
23231;DHT22;11784;49.818;8.632;2023-03-15T04:55:05;6.50;84.20
23231;DHT22;11784;49.818;8.632;2023-03-15T04:57:31;6.60;84.20
23231;DHT22;11784;49.818;8.632;2023-03-15T04:59:59;6.50;83.90
23231;DHT22;11784;49.818;8.632;2023-03-15T05:02:25;6.50;84.30
23231;DHT22;11784;49.818;8.632;2023-03-15T05:04:50;6.50;84.10
23231;DHT22;11784;49.818;8.632;2023-03-15T05:07:16;6.50;84.20
23231;DHT22;11784;49.818;8.632;2023-03-15T05:09:42;6.60;83.90
23231;DHT22;11784;49.818;8.632;2023-03-15T05:12:10;6.60;84.20
23231;DHT22;11784;49.818;8.632;2023-03-15T05:14:36;6.60;85.10
23231;DHT22;11784;49.818;8.632;2023-03-15T05:17:01;6.70;83.30
23231;DHT22;11784;49.818;8.632;2023-03-15T05:19:28;6.80;83.60
23231;DHT22;11784;49.818;8.632;2023-03-15T05:21:53;6.70;83.00
23231;DHT22;11784;49.818;8.632;2023-03-15T05:24:20;6.80;83.70
23231;DHT22;11784;49.818;8.632;2023-03-15T05:26:46;6.80;84.00
23231;DHT22;11784;49.818;8.632;2023-03-15T05:29:12;6.80;83.90
23231;DHT22;11784;49.818;8.632;2023-03-15T05:31:38;6.90;83.70
23231;DHT22;11784;49.818;8.632;2023-03-15T05:34:04;7.00;82.50
23231;DHT22;11784;49.818;8.632;2023-03-15T05:36:32;6.90;82.80
23231;DHT22;11784;49.818;8.632;2023-03-15T05:38:57;7.00;82.40
23231;DHT22;11784;49.818;8.632;2023-03-15T05:41:23;7.00;82.10
23231;DHT22;11784;49.818;8.632;2023-03-15T05:43:49;7.00;82.00
23231;DHT22;11784;49.818;8.632;2023-03-15T05:46:15;7.00;82.20
23231;DHT22;11784;49.818;8.632;2023-03-15T05:48:40;7.00;82.00
23231;DHT22;11784;49.818;8.632;2023-03-15T05:51:06;7.00;82.30
23231;DHT22;11784;49.818;8.632;2023-03-15T05:53:33;7.00;82.40
23231;DHT22;11784;49.818;8.632;2023-03-15T05:55:58;7.00;81.90
23231;DHT22;11784;49.818;8.632;2023-03-15T05:58:24;7.00;81.70
23231;DHT22;11784;49.818;8.632;2023-03-15T06:00:49;7.00;81.70
23231;DHT22;11784;49.818;8.632;2023-03-15T06:03:15;7.00;81.80
23231;DHT22;11784;49.818;8.632;2023-03-15T06:05:41;7.00;82.00
23231;DHT22;11784;49.818;8.632;2023-03-15T06:08:06;7.00;82.70
23231;DHT22;11784;49.818;8.632;2023-03-15T06:10:32;7.00;81.70
23231;DHT22;11784;49.818;8.632;2023-03-15T06:12:58;7.00;81.20
23231;DHT22;11784;49.818;8.632;2023-03-15T06:15:24;7.00;81.50
23231;DHT22;11784;49.818;8.632;2023-03-15T06:17:49;7.00;81.60
23231;DHT22;11784;49.818;8.632;2023-03-15T06:20:15;7.00;81.00
23231;DHT22;11784;49.818;8.632;2023-03-15T06:22:41;7.00;81.00
23231;DHT22;11784;49.818;8.632;2023-03-15T06:25:07;7.00;81.60
23231;DHT22;11784;49.818;8.632;2023-03-15T06:27:33;7.00;82.30
23231;DHT22;11784;49.818;8.632;2023-03-15T06:29:58;7.00;82.00
23231;DHT22;11784;49.818;8.632;2023-03-15T06:32:24;7.00;81.60
23231;DHT22;11784;49.818;8.632;2023-03-15T06:34:50;7.00;81.70
23231;DHT22;11784;49.818;8.632;2023-03-15T06:37:15;7.00;82.30
23231;DHT22;11784;49.818;8.632;2023-03-15T06:39:41;7.00;82.40
23231;DHT22;11784;49.818;8.632;2023-03-15T06:42:09;7.00;82.50
23231;DHT22;11784;49.818;8.632;2023-03-15T06:44:37;7.00;82.60
23231;DHT22;11784;49.818;8.632;2023-03-15T06:47:03;7.00;82.20
23231;DHT22;11784;49.818;8.632;2023-03-15T06:49:29;7.00;82.30
23231;DHT22;11784;49.818;8.632;2023-03-15T06:51:55;7.10;82.20
23231;DHT22;11784;49.818;8.632;2023-03-15T06:54:21;7.10;82.00
23231;DHT22;11784;49.818;8.632;2023-03-15T06:56:46;7.10;82.70
23231;DHT22;11784;49.818;8.632;2023-03-15T06:59:12;7.10;83.20
23231;DHT22;11784;49.818;8.632;2023-03-15T07:01:37;7.10;82.20
23231;DHT22;11784;49.818;8.632;2023-03-15T07:04:03;7.10;82.30
23231;DHT22;11784;49.818;8.632;2023-03-15T07:06:29;7.00;82.60
23231;DHT22;11784;49.818;8.632;2023-03-15T07:08:54;7.00;83.20
23231;DHT22;11784;49.818;8.632;2023-03-15T07:11:20;7.00;83.80
23231;DHT22;11784;49.818;8.632;2023-03-15T07:13:45;7.10;82.90
23231;DHT22;11784;49.818;8.632;2023-03-15T07:16:11;7.10;82.70
23231;DHT22;11784;49.818;8.632;2023-03-15T07:18:37;7.00;82.60
23231;DHT22;11784;49.818;8.632;2023-03-15T07:21:04;7.00;84.10
23231;DHT22;11784;49.818;8.632;2023-03-15T07:23:31;7.00;83.60
23231;DHT22;11784;49.818;8.632;2023-03-15T07:25:56;7.00;84.10
23231;DHT22;11784;49.818;8.632;2023-03-15T07:28:23;6.90;84.30
23231;DHT22;11784;49.818;8.632;2023-03-15T07:31:01;6.90;83.90
23231;DHT22;11784;49.818;8.632;2023-03-15T07:33:27;6.90;84.20
23231;DHT22;11784;49.818;8.632;2023-03-15T07:35:54;6.80;85.10
23231;DHT22;11784;49.818;8.632;2023-03-15T07:38:21;6.90;86.10
23231;DHT22;11784;49.818;8.632;2023-03-15T07:40:47;6.90;85.70
23231;DHT22;11784;49.818;8.632;2023-03-15T07:43:12;7.00;85.40
23231;DHT22;11784;49.818;8.632;2023-03-15T07:45:38;6.90;87.60
23231;DHT22;11784;49.818;8.632;2023-03-15T07:48:04;7.00;86.00
23231;DHT22;11784;49.818;8.632;2023-03-15T07:50:29;7.00;86.90
23231;DHT22;11784;49.818;8.632;2023-03-15T07:52:54;7.10;87.60
23231;DHT22;11784;49.818;8.632;2023-03-15T07:55:20;7.20;86.90
23231;DHT22;11784;49.818;8.632;2023-03-15T07:57:46;7.20;86.50
23231;DHT22;11784;49.818;8.632;2023-03-15T08:00:11;7.30;86.60
23231;DHT22;11784;49.818;8.632;2023-03-15T08:02:41;7.30;86.50
23231;DHT22;11784;49.818;8.632;2023-03-15T08:05:06;7.30;86.20
23231;DHT22;11784;49.818;8.632;2023-03-15T08:07:32;7.30;86.70
23231;DHT22;11784;49.818;8.632;2023-03-15T08:09:57;7.30;86.30
23231;DHT22;11784;49.818;8.632;2023-03-15T08:12:24;7.30;86.30
23231;DHT22;11784;49.818;8.632;2023-03-15T08:14:49;7.30;86.50
23231;DHT22;11784;49.818;8.632;2023-03-15T08:17:16;7.30;86.40
23231;DHT22;11784;49.818;8.632;2023-03-15T08:19:42;7.30;86.10
23231;DHT22;11784;49.818;8.632;2023-03-15T08:22:07;7.30;87.10
23231;DHT22;11784;49.818;8.632;2023-03-15T08:24:33;7.20;86.90
23231;DHT22;11784;49.818;8.632;2023-03-15T08:26:59;7.30;87.30
23231;DHT22;11784;49.818;8.632;2023-03-15T08:29:25;7.30;87.90
23231;DHT22;11784;49.818;8.632;2023-03-15T08:31:50;7.30;87.30
23231;DHT22;11784;49.818;8.632;2023-03-15T08:34:16;7.40;87.70
23231;DHT22;11784;49.818;8.632;2023-03-15T08:36:42;7.40;87.70
23231;DHT22;11784;49.818;8.632;2023-03-15T08:39:07;7.50;86.90
23231;DHT22;11784;49.818;8.632;2023-03-15T08:41:34;7.50;87.30
23231;DHT22;11784;49.818;8.632;2023-03-15T08:43:59;7.50;87.50
23231;DHT22;11784;49.818;8.632;2023-03-15T08:46:26;7.50;86.60
23231;DHT22;11784;49.818;8.632;2023-03-15T08:48:51;7.50;87.70
23231;DHT22;11784;49.818;8.632;2023-03-15T08:51:17;7.50;88.40
23231;DHT22;11784;49.818;8.632;2023-03-15T08:53:44;7.50;87.80
23231;DHT22;11784;49.818;8.632;2023-03-15T08:56:10;7.50;86.90
23231;DHT22;11784;49.818;8.632;2023-03-15T08:58:35;7.40;86.50
23231;DHT22;11784;49.818;8.632;2023-03-15T09:01:01;7.50;87.70
23231;DHT22;11784;49.818;8.632;2023-03-15T09:03:27;7.50;87.90
23231;DHT22;11784;49.818;8.632;2023-03-15T09:05:57;7.60;88.00
23231;DHT22;11784;49.818;8.632;2023-03-15T09:08:23;7.60;87.60
23231;DHT22;11784;49.818;8.632;2023-03-15T09:10:55;7.60;87.30
23231;DHT22;11784;49.818;8.632;2023-03-15T09:13:22;7.50;87.30
23231;DHT22;11784;49.818;8.632;2023-03-15T09:15:52;7.50;87.40
23231;DHT22;11784;49.818;8.632;2023-03-15T09:18:18;7.50;88.00
23231;DHT22;11784;49.818;8.632;2023-03-15T09:20:44;7.50;87.70
23231;DHT22;11784;49.818;8.632;2023-03-15T09:23:10;7.50;88.20
23231;DHT22;11784;49.818;8.632;2023-03-15T09:25:35;7.50;88.10
23231;DHT22;11784;49.818;8.632;2023-03-15T09:28:05;7.50;88.20
23231;DHT22;11784;49.818;8.632;2023-03-15T09:30:31;7.50;87.90
23231;DHT22;11784;49.818;8.632;2023-03-15T09:32:57;7.50;88.40
23231;DHT22;11784;49.818;8.632;2023-03-15T09:35:22;7.60;87.90
23231;DHT22;11784;49.818;8.632;2023-03-15T09:37:49;7.60;87.40
23231;DHT22;11784;49.818;8.632;2023-03-15T09:40:21;7.60;88.30
23231;DHT22;11784;49.818;8.632;2023-03-15T09:45:34;7.60;89.10
23231;DHT22;11784;49.818;8.632;2023-03-15T09:48:26;7.70;88.80
23231;DHT22;11784;49.818;8.632;2023-03-15T09:53:32;7.90;88.00
23231;DHT22;11784;49.818;8.632;2023-03-15T09:56:01;7.90;87.60
23231;DHT22;11784;49.818;8.632;2023-03-15T09:58:29;7.90;87.30
23231;DHT22;11784;49.818;8.632;2023-03-15T10:01:02;7.90;87.70
23231;DHT22;11784;49.818;8.632;2023-03-15T10:03:48;7.90;87.30
23231;DHT22;11784;49.818;8.632;2023-03-15T10:06:23;7.90;87.60
23231;DHT22;11784;49.818;8.632;2023-03-15T10:08:57;8.00;88.90
23231;DHT22;11784;49.818;8.632;2023-03-15T10:16:49;8.30;87.10
23231;DHT22;11784;49.818;8.632;2023-03-15T10:22:24;8.40;87.50
23231;DHT22;11784;49.818;8.632;2023-03-15T10:27:49;8.50;87.50
23231;DHT22;11784;49.818;8.632;2023-03-15T10:30:24;8.60;87.50
23231;DHT22;11784;49.818;8.632;2023-03-15T10:33:27;8.60;87.90
23231;DHT22;11784;49.818;8.632;2023-03-15T10:35:54;8.70;86.80
23231;DHT22;11784;49.818;8.632;2023-03-15T10:38:21;8.70;86.60
23231;DHT22;11784;49.818;8.632;2023-03-15T10:40:49;8.80;87.40
23231;DHT22;11784;49.818;8.632;2023-03-15T10:51:23;8.90;87.40
23231;DHT22;11784;49.818;8.632;2023-03-15T10:56:25;9.10;86.00
23231;DHT22;11784;49.818;8.632;2023-03-15T10:58:53;9.20;86.40
23231;DHT22;11784;49.818;8.632;2023-03-15T11:01:28;9.20;85.50
23231;DHT22;11784;49.818;8.632;2023-03-15T11:04:08;9.20;86.20
23231;DHT22;11784;49.818;8.632;2023-03-15T11:07:01;9.30;86.10
23231;DHT22;11784;49.818;8.632;2023-03-15T11:09:40;9.30;86.20
23231;DHT22;11784;49.818;8.632;2023-03-15T11:17:35;9.40;85.80
23231;DHT22;11784;49.818;8.632;2023-03-15T11:20:02;9.40;85.10
23231;DHT22;11784;49.818;8.632;2023-03-15T11:22:47;9.40;85.50
23231;DHT22;11784;49.818;8.632;2023-03-15T11:25:15;9.30;85.80
23231;DHT22;11784;49.818;8.632;2023-03-15T11:27:41;9.30;85.90
23231;DHT22;11784;49.818;8.632;2023-03-15T11:30:15;9.30;86.30
23231;DHT22;11784;49.818;8.632;2023-03-15T11:32:42;9.30;85.30
23231;DHT22;11784;49.818;8.632;2023-03-15T11:35:37;9.30;86.00
23231;DHT22;11784;49.818;8.632;2023-03-15T11:38:31;9.40;85.80
23231;DHT22;11784;49.818;8.632;2023-03-15T11:40:58;9.40;85.70
23231;DHT22;11784;49.818;8.632;2023-03-15T11:43:30;9.40;85.40
23231;DHT22;11784;49.818;8.632;2023-03-15T11:45:59;9.40;85.40
23231;DHT22;11784;49.818;8.632;2023-03-15T11:48:47;9.40;85.60
23231;DHT22;11784;49.818;8.632;2023-03-15T11:51:15;9.40;85.30
23231;DHT22;11784;49.818;8.632;2023-03-15T11:53:46;9.40;86.10
23231;DHT22;11784;49.818;8.632;2023-03-15T11:56:29;9.30;87.20
23231;DHT22;11784;49.818;8.632;2023-03-15T11:59:13;9.40;85.70
23231;DHT22;11784;49.818;8.632;2023-03-15T12:09:52;9.30;87.20
23231;DHT22;11784;49.818;8.632;2023-03-15T12:17:55;9.50;87.50
23231;DHT22;11784;49.818;8.632;2023-03-15T12:23:13;9.50;87.10
23231;DHT22;11784;49.818;8.632;2023-03-15T12:25:50;9.50;87.60
23231;DHT22;11784;49.818;8.632;2023-03-15T12:30:54;9.50;87.90
23231;DHT22;11784;49.818;8.632;2023-03-15T12:33:21;9.50;88.20
23231;DHT22;11784;49.818;8.632;2023-03-15T12:35:48;9.60;88.60
23231;DHT22;11784;49.818;8.632;2023-03-15T12:38:19;9.60;88.30
23231;DHT22;11784;49.818;8.632;2023-03-15T12:40:50;9.60;88.00
23231;DHT22;11784;49.818;8.632;2023-03-15T12:43:37;9.50;88.30
23231;DHT22;11784;49.818;8.632;2023-03-15T12:46:03;9.50;88.20
23231;DHT22;11784;49.818;8.632;2023-03-15T12:48:30;9.50;89.00
23231;DHT22;11784;49.818;8.632;2023-03-15T12:51:01;9.60;87.90
23231;DHT22;11784;49.818;8.632;2023-03-15T12:58:46;9.80;89.50
23231;DHT22;11784;49.818;8.632;2023-03-15T13:01:15;9.90;88.80
23231;DHT22;11784;49.818;8.632;2023-03-15T13:03:41;10.10;88.90
23231;DHT22;11784;49.818;8.632;2023-03-15T13:06:34;10.30;89.50
23231;DHT22;11784;49.818;8.632;2023-03-15T13:12:19;10.90;90.00
23231;DHT22;11784;49.818;8.632;2023-03-15T13:14:59;11.10;88.00
23231;DHT22;11784;49.818;8.632;2023-03-15T13:17:47;11.30;87.90
23231;DHT22;11784;49.818;8.632;2023-03-15T13:20:41;11.50;86.00
23231;DHT22;11784;49.818;8.632;2023-03-15T13:26:12;11.90;77.90
23231;DHT22;11784;49.818;8.632;2023-03-15T13:29:03;12.10;77.80
23231;DHT22;11784;49.818;8.632;2023-03-15T13:31:33;12.30;79.10
23231;DHT22;11784;49.818;8.632;2023-03-15T13:34:19;12.40;73.50
23231;DHT22;11784;49.818;8.632;2023-03-15T13:36:54;12.50;73.20
23231;DHT22;11784;49.818;8.632;2023-03-15T13:39:22;12.60;71.40
23231;DHT22;11784;49.818;8.632;2023-03-15T13:41:55;12.50;70.90
23231;DHT22;11784;49.818;8.632;2023-03-15T13:44:22;12.50;73.40
23231;DHT22;11784;49.818;8.632;2023-03-15T13:46:50;12.30;73.30
23231;DHT22;11784;49.818;8.632;2023-03-15T13:49:17;12.30;72.20
23231;DHT22;11784;49.818;8.632;2023-03-15T13:51:43;12.20;73.40
23231;DHT22;11784;49.818;8.632;2023-03-15T13:54:12;12.40;81.10
23231;DHT22;11784;49.818;8.632;2023-03-15T13:56:56;13.10;77.30
23231;DHT22;11784;49.818;8.632;2023-03-15T13:59:26;14.00;74.30
23231;DHT22;11784;49.818;8.632;2023-03-15T14:01:54;15.10;73.50
23231;DHT22;11784;49.818;8.632;2023-03-15T14:04:21;16.30;66.30
23231;DHT22;11784;49.818;8.632;2023-03-15T14:06:48;17.00;61.90
23231;DHT22;11784;49.818;8.632;2023-03-15T14:09:25;17.30;59.40
23231;DHT22;11784;49.818;8.632;2023-03-15T14:12:01;17.10;54.50
23231;DHT22;11784;49.818;8.632;2023-03-15T14:14:28;16.70;51.80
23231;DHT22;11784;49.818;8.632;2023-03-15T14:16:56;16.30;52.90
23231;DHT22;11784;49.818;8.632;2023-03-15T14:19:24;15.80;56.10
23231;DHT22;11784;49.818;8.632;2023-03-15T14:21:56;15.40;57.90
23231;DHT22;11784;49.818;8.632;2023-03-15T14:24:38;14.90;57.40
23231;DHT22;11784;49.818;8.632;2023-03-15T14:27:38;14.50;59.30
23231;DHT22;11784;49.818;8.632;2023-03-15T14:29:59;14.20;60.20
23231;DHT22;11784;49.818;8.632;2023-03-15T14:32:31;13.80;62.70
23231;DHT22;11784;49.818;8.632;2023-03-15T14:35:05;13.60;64.60
23231;DHT22;11784;49.818;8.632;2023-03-15T14:37:40;13.50;65.00
23231;DHT22;11784;49.818;8.632;2023-03-15T14:40:18;13.30;63.80
23231;DHT22;11784;49.818;8.632;2023-03-15T14:42:46;13.50;65.80
23231;DHT22;11784;49.818;8.632;2023-03-15T14:45:12;14.20;63.80
23231;DHT22;11784;49.818;8.632;2023-03-15T14:47:45;14.70;60.40
23231;DHT22;11784;49.818;8.632;2023-03-15T14:50:17;14.90;58.80
23231;DHT22;11784;49.818;8.632;2023-03-15T14:52:44;14.90;57.90
23231;DHT22;11784;49.818;8.632;2023-03-15T14:55:14;14.70;57.10
23231;DHT22;11784;49.818;8.632;2023-03-15T14:57:40;14.50;56.10
23231;DHT22;11784;49.818;8.632;2023-03-15T15:00:06;14.20;54.10
23231;DHT22;11784;49.818;8.632;2023-03-15T15:02:35;14.00;54.70
23231;DHT22;11784;49.818;8.632;2023-03-15T15:05:17;13.70;54.30
23231;DHT22;11784;49.818;8.632;2023-03-15T15:07:44;13.50;55.10
23231;DHT22;11784;49.818;8.632;2023-03-15T15:10:10;13.30;54.30
23231;DHT22;11784;49.818;8.632;2023-03-15T15:12:35;13.10;54.80
23231;DHT22;11784;49.818;8.632;2023-03-15T15:15:13;12.90;54.60
23231;DHT22;11784;49.818;8.632;2023-03-15T15:17:40;12.80;55.30
23231;DHT22;11784;49.818;8.632;2023-03-15T15:20:05;12.60;55.50
23231;DHT22;11784;49.818;8.632;2023-03-15T15:22:32;12.40;56.00
23231;DHT22;11784;49.818;8.632;2023-03-15T15:24:57;12.20;57.80
23231;DHT22;11784;49.818;8.632;2023-03-15T15:27:23;12.00;55.50
23231;DHT22;11784;49.818;8.632;2023-03-15T15:29:48;11.80;55.40
23231;DHT22;11784;49.818;8.632;2023-03-15T15:32:15;11.60;56.00
23231;DHT22;11784;49.818;8.632;2023-03-15T15:34:40;11.40;56.60
23231;DHT22;11784;49.818;8.632;2023-03-15T15:37:11;11.40;57.40
23231;DHT22;11784;49.818;8.632;2023-03-15T15:39:36;11.40;57.50
23231;DHT22;11784;49.818;8.632;2023-03-15T15:42:02;11.60;57.10
23231;DHT22;11784;49.818;8.632;2023-03-15T15:44:28;12.10;56.40
23231;DHT22;11784;49.818;8.632;2023-03-15T15:46:53;12.50;55.90
23231;DHT22;11784;49.818;8.632;2023-03-15T15:49:19;13.20;56.70
23231;DHT22;11784;49.818;8.632;2023-03-15T15:51:48;13.90;56.80
23231;DHT22;11784;49.818;8.632;2023-03-15T15:54:28;14.80;52.60
23231;DHT22;11784;49.818;8.632;2023-03-15T15:56:57;15.70;49.60
23231;DHT22;11784;49.818;8.632;2023-03-15T15:59:23;16.60;45.00
23231;DHT22;11784;49.818;8.632;2023-03-15T16:01:50;17.40;43.00
23231;DHT22;11784;49.818;8.632;2023-03-15T16:04:16;18.00;39.20
23231;DHT22;11784;49.818;8.632;2023-03-15T16:06:52;18.40;39.80
23231;DHT22;11784;49.818;8.632;2023-03-15T16:09:19;18.60;39.10
23231;DHT22;11784;49.818;8.632;2023-03-15T16:11:47;18.60;36.70
23231;DHT22;11784;49.818;8.632;2023-03-15T16:14:13;18.40;37.10
23231;DHT22;11784;49.818;8.632;2023-03-15T16:16:41;18.00;36.80
23231;DHT22;11784;49.818;8.632;2023-03-15T16:19:07;17.50;37.80
23231;DHT22;11784;49.818;8.632;2023-03-15T16:24:28;16.20;39.50
23231;DHT22;11784;49.818;8.632;2023-03-15T16:26:58;15.70;41.10
23231;DHT22;11784;49.818;8.632;2023-03-15T16:29:31;15.10;42.40
23231;DHT22;11784;49.818;8.632;2023-03-15T16:31:57;14.70;42.90
23231;DHT22;11784;49.818;8.632;2023-03-15T16:34:23;14.30;43.90
23231;DHT22;11784;49.818;8.632;2023-03-15T16:36:50;13.90;44.80
23231;DHT22;11784;49.818;8.632;2023-03-15T16:39:20;13.70;46.90
23231;DHT22;11784;49.818;8.632;2023-03-15T16:41:48;13.30;46.10
23231;DHT22;11784;49.818;8.632;2023-03-15T16:44:18;13.20;47.70
23231;DHT22;11784;49.818;8.632;2023-03-15T16:46:45;13.00;49.90
23231;DHT22;11784;49.818;8.632;2023-03-15T16:49:11;12.80;48.30
23231;DHT22;11784;49.818;8.632;2023-03-15T16:51:38;12.70;50.30
23231;DHT22;11784;49.818;8.632;2023-03-15T16:54:05;12.60;52.80
23231;DHT22;11784;49.818;8.632;2023-03-15T16:56:34;12.50;53.40
23231;DHT22;11784;49.818;8.632;2023-03-15T16:59:02;12.40;53.60
23231;DHT22;11784;49.818;8.632;2023-03-15T17:01:29;12.30;50.30